Terminal Aerodrome Forecast
Issued by NWS

Home | Current Version | Previous Version | Text Only | Print | Product List | Glossary On
Versions: 1 2 3 4 5 6 7 8 9 10 11 12 13 14 15 16 17 18 19 20 21 22 23 24 25
000
FTUS43 KBIS 230500
TAFMOT
TAF
KMOT 230528Z 2306/2406 03008KT P6SM SCT012 OVC025
     FM230700 03008KT P6SM OVC010
     FM231800 04013KT 5SM SHRA BR OVC008
     FM232100 03016G26KT 3SM +SHRA BR OVC004=

USA.gov is the U.S. government's official web portal to all federal, state and local government web resources and services.